logo
Search for airport 
image banner adimage banner adimage banner ad
image banner ad

YDUNR - Dunrossie

Located in Tangorin, Australia

ICAO - , IATA -

Data provided by Airmate  

General information

Coordinates: S21°57'28" E144°25'55"
Elevation is 902 feet MSL.
Magnetic variation is 7° East
View others Airports in Queensland

Operational data

Special qualification required
Current time UTC:
Current local time:
Weather at : - ( 0 km )
METAR: UIII 231842Z 00000MPS 1400 0900SE R30/1800D BCFG NSC 17/17 Q1005 R30/CLRD60 NOSIG RMK QFE709/0946
View NOTAMs / SUP AIP / TFR affecting this airport [VIEW]
Communications frequencies: [VIEW]

Runways:

RWY identifierQFULength (ft)Width (ft)SurfaceLDA (ft)
35314222DIRT
17182°314222DIRT

Airport contact information

Address: Tangorin Australia

Satellite view of YDUNR